sensor_id;sensor_type;location;lat;lon;timestamp;pressure;altitude;pressure_sealevel;temperature
78225;BMP280;67498;53.650;10.090;2023-11-18T00:02:09;102282.25;;;5.13
78225;BMP280;67498;53.650;10.090;2023-11-18T00:04:39;102291.94;;;5.25
78225;BMP280;67498;53.650;10.090;2023-11-18T00:07:09;102274.59;;;5.17
78225;BMP280;67498;53.650;10.090;2023-11-18T00:09:40;102271.56;;;5.15
78225;BMP280;67498;53.650;10.090;2023-11-18T00:12:06;102270.19;;;5.17
78225;BMP280;67498;53.650;10.090;2023-11-18T00:14:36;102276.38;;;5.25
78225;BMP280;67498;53.650;10.090;2023-11-18T00:17:11;102280.19;;;5.28
78225;BMP280;67498;53.650;10.090;2023-11-18T00:19:42;102265.47;;;5.19
78225;BMP280;67498;53.650;10.090;2023-11-18T00:22:11;102281.56;;;5.25
78225;BMP280;67498;53.650;10.090;2023-11-18T00:24:43;102278.97;;;5.25
78225;BMP280;67498;53.650;10.090;2023-11-18T00:27:18;102257.09;;;5.14
78225;BMP280;67498;53.650;10.090;2023-11-18T00:29:51;102256.78;;;5.15
78225;BMP280;67498;53.650;10.090;2023-11-18T00:32:20;102266.22;;;5.20
78225;BMP280;67498;53.650;10.090;2023-11-18T00:34:47;102285.06;;;5.29
78225;BMP280;67498;53.650;10.090;2023-11-18T00:37:14;102268.34;;;5.18
78225;BMP280;67498;53.650;10.090;2023-11-18T00:39:43;102272.91;;;5.21
78225;BMP280;67498;53.650;10.090;2023-11-18T00:42:11;102270.31;;;5.21
78225;BMP280;67498;53.650;10.090;2023-11-18T00:44:41;102268.34;;;5.18
78225;BMP280;67498;53.650;10.090;2023-11-18T00:47:11;102249.53;;;5.09
78225;BMP280;67498;53.650;10.090;2023-11-18T00:49:40;102279.88;;;5.29
78225;BMP280;67498;53.650;10.090;2023-11-18T00:52:07;102266.97;;;5.20
78225;BMP280;67498;53.650;10.090;2023-11-18T00:57:28;102283.25;;;5.21
78225;BMP280;67498;53.650;10.090;2023-11-18T00:59:58;102278.69;;;5.18
78225;BMP280;67498;53.650;10.090;2023-11-18T01:02:25;102276.13;;;5.18
78225;BMP280;67498;53.650;10.090;2023-11-18T01:04:59;102292.81;;;5.29
78225;BMP280;67498;53.650;10.090;2023-11-18T01:07:26;102286.16;;;5.19
78225;BMP280;67498;53.650;10.090;2023-11-18T01:10:05;102283.13;;;5.17
78225;BMP280;67498;53.650;10.090;2023-11-18T01:12:41;102284.34;;;5.20
78225;BMP280;67498;53.650;10.090;2023-11-18T01:15:13;102278.69;;;5.18
78225;BMP280;67498;53.650;10.090;2023-11-18T01:17:45;102288.69;;;5.28
78225;BMP280;67498;53.650;10.090;2023-11-18T01:20:15;102292.38;;;5.27
78225;BMP280;67498;53.650;10.090;2023-11-18T01:22:49;102286.00;;;5.16
78225;BMP280;67498;53.650;10.090;2023-11-18T01:25:19;102282.66;;;5.15
78225;BMP280;67498;53.650;10.090;2023-11-18T01:27:54;102272.53;;;5.10
78225;BMP280;67498;53.650;10.090;2023-11-18T01:30:28;102277.50;;;5.15
78225;BMP280;67498;53.650;10.090;2023-11-18T01:32:58;102278.25;;;5.16
78225;BMP280;67498;53.650;10.090;2023-11-18T01:35:46;102280.53;;;5.17
78225;BMP280;67498;53.650;10.090;2023-11-18T01:38:24;102273.38;;;5.14
78225;BMP280;67498;53.650;10.090;2023-11-18T01:40:54;102279.00;;;5.16
78225;BMP280;67498;53.650;10.090;2023-11-18T01:43:21;102287.22;;;5.18
78225;BMP280;67498;53.650;10.090;2023-11-18T01:45:48;102277.50;;;5.15
78225;BMP280;67498;53.650;10.090;2023-11-18T01:48:16;102275.13;;;5.10
78225;BMP280;67498;53.650;10.090;2023-11-18T01:50:55;102276.63;;;5.11
78225;BMP280;67498;53.650;10.090;2023-11-18T01:53:33;102276.75;;;5.15
78225;BMP280;67498;53.650;10.090;2023-11-18T01:56:03;102280.84;;;5.16
78225;BMP280;67498;53.650;10.090;2023-11-18T01:58:34;102281.91;;;5.15
78225;BMP280;67498;53.650;10.090;2023-11-18T02:01:06;102288.75;;;5.19
78225;BMP280;67498;53.650;10.090;2023-11-18T02:03:34;102292.28;;;5.15
78225;BMP280;67498;53.650;10.090;2023-11-18T02:06:04;102286.22;;;5.11
78225;BMP280;67498;53.650;10.090;2023-11-18T02:08:33;102283.81;;;5.06
78225;BMP280;67498;53.650;10.090;2023-11-18T02:11:28;102286.69;;;5.04
78225;BMP280;67498;53.650;10.090;2023-11-18T02:14:04;102293.06;;;5.07
78225;BMP280;67498;53.650;10.090;2023-11-18T02:16:43;102296.41;;;5.07
78225;BMP280;67498;53.650;10.090;2023-11-18T02:19:24;102288.66;;;5.07
78225;BMP280;67498;53.650;10.090;2023-11-18T02:21:52;102299.91;;;5.11
78225;BMP280;67498;53.650;10.090;2023-11-18T02:24:34;102303.84;;;5.17
78225;BMP280;67498;53.650;10.090;2023-11-18T02:27:09;102296.56;;;5.11
78225;BMP280;67498;53.650;10.090;2023-11-18T02:30:15;102312.66;;;5.16
78225;BMP280;67498;53.650;10.090;2023-11-18T02:32:51;102316.16;;;5.20
78225;BMP280;67498;53.650;10.090;2023-11-18T02:35:28;102315.56;;;5.15
78225;BMP280;67498;53.650;10.090;2023-11-18T02:37:59;102323.91;;;5.20
78225;BMP280;67498;53.650;10.090;2023-11-18T02:40:39;102330.00;;;5.24
78225;BMP280;67498;53.650;10.090;2023-11-18T02:43:15;102320.31;;;5.13
78225;BMP280;67498;53.650;10.090;2023-11-18T02:45:49;102334.28;;;5.20
78225;BMP280;67498;53.650;10.090;2023-11-18T02:48:21;102327.34;;;5.12
78225;BMP280;67498;53.650;10.090;2023-11-18T02:51:02;102326.13;;;5.10
78225;BMP280;67498;53.650;10.090;2023-11-18T02:53:41;102340.84;;;5.18
78225;BMP280;67498;53.650;10.090;2023-11-18T02:56:15;102324.28;;;5.10
78225;BMP280;67498;53.650;10.090;2023-11-18T02:58:48;102323.53;;;5.10
78225;BMP280;67498;53.650;10.090;2023-11-18T03:01:22;102328.72;;;5.10
78225;BMP280;67498;53.650;10.090;2023-11-18T03:03:52;102326.88;;;5.10
78225;BMP280;67498;53.650;10.090;2023-11-18T03:06:35;102324.59;;;5.09
78225;BMP280;67498;53.650;10.090;2023-11-18T03:09:14;102329.56;;;5.14
78225;BMP280;67498;53.650;10.090;2023-11-18T03:11:49;102322.75;;;5.09
78225;BMP280;67498;53.650;10.090;2023-11-18T03:14:20;102328.72;;;5.10
78225;BMP280;67498;53.650;10.090;2023-11-18T03:16:59;102322.19;;;5.03
78225;BMP280;67498;53.650;10.090;2023-11-18T03:19:32;102323.09;;;5.08
78225;BMP280;67498;53.650;10.090;2023-11-18T03:22:08;102315.50;;;5.02
78225;BMP280;67498;53.650;10.090;2023-11-18T03:24:37;102312.13;;;5.02
78225;BMP280;67498;53.650;10.090;2023-11-18T03:27:05;102316.69;;;5.05
78225;BMP280;67498;53.650;10.090;2023-11-18T03:29:37;102315.50;;;5.02
78225;BMP280;67498;53.650;10.090;2023-11-18T03:32:14;102321.88;;;5.05
78225;BMP280;67498;53.650;10.090;2023-11-18T03:34:41;102314.72;;;5.02
78225;BMP280;67498;53.650;10.090;2023-11-18T03:37:10;102318.09;;;5.02
78225;BMP280;67498;53.650;10.090;2023-11-18T03:39:40;102318.50;;;5.05
78225;BMP280;67498;53.650;10.090;2023-11-18T03:42:10;102318.50;;;5.05
78225;BMP280;67498;53.650;10.090;2023-11-18T03:44:36;102323.69;;;5.05
78225;BMP280;67498;53.650;10.090;2023-11-18T03:47:06;102320.03;;;5.06
78225;BMP280;67498;53.650;10.090;2023-11-18T03:49:38;102329.94;;;5.03
78225;BMP280;67498;53.650;10.090;2023-11-18T03:52:05;102332.53;;;5.03
78225;BMP280;67498;53.650;10.090;2023-11-18T03:54:35;102328.56;;;5.06
78225;BMP280;67498;53.650;10.090;2023-11-18T03:57:04;102326.44;;;5.08
78225;BMP280;67498;53.650;10.090;2023-11-18T03:59:39;102338.28;;;5.09
78225;BMP280;67498;53.650;10.090;2023-11-18T04:02:08;102353.78;;;5.18
78225;BMP280;67498;53.650;10.090;2023-11-18T04:04:36;102346.50;;;5.11
78225;BMP280;67498;53.650;10.090;2023-11-18T04:07:03;102343.16;;;5.11
78225;BMP280;67498;53.650;10.090;2023-11-18T04:09:30;102337.53;;;5.09
78225;BMP280;67498;53.650;10.090;2023-11-18T04:11:59;102326.59;;;5.03
78225;BMP280;67498;53.650;10.090;2023-11-18T04:14:37;102336.94;;;5.03
78225;BMP280;67498;53.650;10.090;2023-11-18T04:17:04;102330.25;;;5.02
78225;BMP280;67498;53.650;10.090;2023-11-18T04:19:34;102339.81;;;5.10
78225;BMP280;67498;53.650;10.090;2023-11-18T04:22:06;102332.38;;;5.09
78225;BMP280;67498;53.650;10.090;2023-11-18T04:24:38;102345.47;;;5.12
78225;BMP280;67498;53.650;10.090;2023-11-18T04:27:07;102334.94;;;5.09
78225;BMP280;67498;53.650;10.090;2023-11-18T04:29:46;102336.78;;;5.08
78225;BMP280;67498;53.650;10.090;2023-11-18T04:32:17;102346.63;;;5.15
78225;BMP280;67498;53.650;10.090;2023-11-18T04:34:44;102337.84;;;5.07
78225;BMP280;67498;53.650;10.090;2023-11-18T04:37:11;102328.88;;;5.05
78225;BMP280;67498;53.650;10.090;2023-11-18T04:39:40;102324.47;;;5.05
78225;BMP280;67498;53.650;10.090;2023-11-18T04:42:13;102322.19;;;5.03
78225;BMP280;67498;53.650;10.090;2023-11-18T04:44:39;102331.16;;;5.06
78225;BMP280;67498;53.650;10.090;2023-11-18T04:47:07;102330.84;;;5.08
78225;BMP280;67498;53.650;10.090;2023-11-18T04:49:35;102325.06;;;5.02
78225;BMP280;67498;53.650;10.090;2023-11-18T04:52:18;102341.13;;;5.16
78225;BMP280;67498;53.650;10.090;2023-11-18T04:54:52;102330.25;;;5.02
78225;BMP280;67498;53.650;10.090;2023-11-18T04:57:22;102348.44;;;5.14
78225;BMP280;67498;53.650;10.090;2023-11-18T04:59:51;102351.03;;;5.14
78225;BMP280;67498;53.650;10.090;2023-11-18T05:02:21;102327.34;;;5.03
78225;BMP280;67498;53.650;10.090;2023-11-18T05:04:56;102324.75;;;5.03
78225;BMP280;67498;53.650;10.090;2023-11-18T05:07:24;102345.56;;;5.16
78225;BMP280;67498;53.650;10.090;2023-11-18T05:09:53;102336.16;;;5.11
78225;BMP280;67498;53.650;10.090;2023-11-18T05:12:28;102315.50;;;5.02
78225;BMP280;67498;53.650;10.090;2023-11-18T05:15:02;102323.53;;;5.10
78225;BMP280;67498;53.650;10.090;2023-11-18T05:17:41;102308.78;;;5.01
78225;BMP280;67498;53.650;10.090;2023-11-18T05:20:12;102304.22;;;4.98
78225;BMP280;67498;53.650;10.090;2023-11-18T05:22:52;102315.16;;;5.04
78225;BMP280;67498;53.650;10.090;2023-11-18T05:25:18;102299.81;;;4.99
78225;BMP280;67498;53.650;10.090;2023-11-18T05:27:45;102293.44;;;4.96
78225;BMP280;67498;53.650;10.090;2023-11-18T05:30:15;102299.97;;;5.02
78225;BMP280;67498;53.650;10.090;2023-11-18T05:32:43;102289.47;;;4.99
78225;BMP280;67498;53.650;10.090;2023-11-18T05:35:12;102285.97;;;4.95
78225;BMP280;67498;53.650;10.090;2023-11-18T05:37:52;102286.41;;;4.97
78225;BMP280;67498;53.650;10.090;2023-11-18T05:40:25;102283.53;;;4.98
78225;BMP280;67498;53.650;10.090;2023-11-18T05:42:52;102281.59;;;4.95
78225;BMP280;67498;53.650;10.090;2023-11-18T05:45:21;102278.22;;;4.95
78225;BMP280;67498;53.650;10.090;2023-11-18T05:48:02;102283.09;;;4.96
78225;BMP280;67498;53.650;10.090;2023-11-18T05:50:39;102286.13;;;4.98
78225;BMP280;67498;53.650;10.090;2023-11-18T05:53:10;102285.69;;;4.96
78225;BMP280;67498;53.650;10.090;2023-11-18T05:55:36;102296.91;;;5.00
78225;BMP280;67498;53.650;10.090;2023-11-18T05:58:03;102280.69;;;4.91
78225;BMP280;67498;53.650;10.090;2023-11-18T06:00:35;102279.94;;;4.91
78225;BMP280;67498;53.650;10.090;2023-11-18T06:03:01;102280.50;;;4.96
78225;BMP280;67498;53.650;10.090;2023-11-18T06:05:32;102283.19;;;5.00
78225;BMP280;67498;53.650;10.090;2023-11-18T06:08:04;102268.50;;;4.92
78225;BMP280;67498;53.650;10.090;2023-11-18T06:10:48;102269.88;;;4.89
78225;BMP280;67498;53.650;10.090;2023-11-18T06:13:19;102281.13;;;4.93
78225;BMP280;67498;53.650;10.090;2023-11-18T06:15:46;102271.56;;;4.85
78225;BMP280;67498;53.650;10.090;2023-11-18T06:18:13;102293.13;;;4.98
78225;BMP280;67498;53.650;10.090;2023-11-18T06:20:43;102296.13;;;5.00
78225;BMP280;67498;53.650;10.090;2023-11-18T06:23:12;102281.44;;;4.92
78225;BMP280;67498;53.650;10.090;2023-11-18T06:25:54;102289.34;;;4.95
78225;BMP280;67498;53.650;10.090;2023-11-18T06:28:26;102272.00;;;4.87
78225;BMP280;67498;53.650;10.090;2023-11-18T06:30:54;102276.28;;;4.83
78225;BMP280;67498;53.650;10.090;2023-11-18T06:33:20;102284.78;;;4.92
78225;BMP280;67498;53.650;10.090;2023-11-18T06:35:52;102273.09;;;4.86
78225;BMP280;67498;53.650;10.090;2023-11-18T06:38:22;102288.56;;;4.95
78225;BMP280;67498;53.650;10.090;2023-11-18T06:40:55;102293.00;;;4.94
78225;BMP280;67498;53.650;10.090;2023-11-18T06:43:24;102286.91;;;4.90
78225;BMP280;67498;53.650;10.090;2023-11-18T06:46:16;102281.44;;;4.83
78225;BMP280;67498;53.650;10.090;2023-11-18T06:48:45;102282.22;;;4.84
78225;BMP280;67498;53.650;10.090;2023-11-18T06:51:18;102274.97;;;4.77
78225;BMP280;67498;53.650;10.090;2023-11-18T06:53:59;102276.63;;;4.73
78225;BMP280;67498;53.650;10.090;2023-11-18T06:56:27;102297.75;;;4.84
78225;BMP280;67498;53.650;10.090;2023-11-18T06:58:54;102285.03;;;4.70
78225;BMP280;67498;53.650;10.090;2023-11-18T07:01:24;102283.94;;;4.71
78225;BMP280;67498;53.650;10.090;2023-11-18T07:04:01;102297.63;;;4.71
78225;BMP280;67498;53.650;10.090;2023-11-18T07:06:40;102307.06;;;4.76
78225;BMP280;67498;53.650;10.090;2023-11-18T07:09:10;102296.13;;;4.70
78225;BMP280;67498;53.650;10.090;2023-11-18T07:11:44;102324.38;;;4.84
78225;BMP280;67498;53.650;10.090;2023-11-18T07:14:13;102312.88;;;4.73
78225;BMP280;67498;53.650;10.090;2023-11-18T07:17:01;102321.97;;;4.79
78225;BMP280;67498;53.650;10.090;2023-11-18T07:19:33;102326.97;;;4.84
78225;BMP280;67498;53.650;10.090;2023-11-18T07:22:01;102338.53;;;4.87
78225;BMP280;67498;53.650;10.090;2023-11-18T07:24:32;102341.59;;;4.89
78225;BMP280;67498;53.650;10.090;2023-11-18T07:27:01;102350.50;;;5.00
78225;BMP280;67498;53.650;10.090;2023-11-18T07:29:29;102348.53;;;4.97
78225;BMP280;67498;53.650;10.090;2023-11-18T07:31:57;102335.59;;;4.97
78225;BMP280;67498;53.650;10.090;2023-11-18T07:34:32;102313.41;;;4.87
78225;BMP280;67498;53.650;10.090;2023-11-18T07:37:03;102329.03;;;4.99
78225;BMP280;67498;53.650;10.090;2023-11-18T07:39:33;102334.94;;;5.09
78225;BMP280;67498;53.650;10.090;2023-11-18T07:42:11;102320.97;;;5.01
78225;BMP280;67498;53.650;10.090;2023-11-18T07:44:45;102332.81;;;5.11
78225;BMP280;67498;53.650;10.090;2023-11-18T07:47:11;102338.53;;;5.16
78225;BMP280;67498;53.650;10.090;2023-11-18T07:49:41;102336.91;;;5.12
78225;BMP280;67498;53.650;10.090;2023-11-18T07:52:07;102338.75;;;5.11
78225;BMP280;67498;53.650;10.090;2023-11-18T07:54:36;102333.56;;;5.11
78225;BMP280;67498;53.650;10.090;2023-11-18T07:57:08;102331.44;;;5.13
78225;BMP280;67498;53.650;10.090;2023-11-18T07:59:39;102328.97;;;5.17
78225;BMP280;67498;53.650;10.090;2023-11-18T08:02:11;102342.03;;;5.29
78225;BMP280;67498;53.650;10.090;2023-11-18T08:04:43;102341.81;;;5.34
78225;BMP280;67498;53.650;10.090;2023-11-18T08:07:15;102318.28;;;5.27
78225;BMP280;67498;53.650;10.090;2023-11-18T08:09:42;102327.34;;;5.33
78225;BMP280;67498;53.650;10.090;2023-11-18T08:12:09;102321.56;;;5.36
78225;BMP280;67498;53.650;10.090;2023-11-18T08:14:40;102324.56;;;5.38
78225;BMP280;67498;53.650;10.090;2023-11-18T08:17:29;102320.97;;;5.31
78225;BMP280;67498;53.650;10.090;2023-11-18T08:19:55;102330.84;;;5.37
78225;BMP280;67498;53.650;10.090;2023-11-18T08:22:21;102336.28;;;5.44
78225;BMP280;67498;53.650;10.090;2023-11-18T08:24:56;102340.97;;;5.51
78225;BMP280;67498;53.650;10.090;2023-11-18T08:38:07;102338.81;;;5.74
78225;BMP280;67498;53.650;10.090;2023-11-18T08:40:43;102320.00;;;5.65
78225;BMP280;67498;53.650;10.090;2023-11-18T08:43:48;102320.00;;;5.65
78225;BMP280;67498;53.650;10.090;2023-11-18T08:46:30;102316.84;;;5.59
78225;BMP280;67498;53.650;10.090;2023-11-18T12:57:39;102083.13;;;7.40
78225;BMP280;67498;53.650;10.090;2023-11-18T14:20:51;101959.25;;;6.80
78225;BMP280;67498;53.650;10.090;2023-11-18T14:54:33;101846.56;;;6.18
78225;BMP280;67498;53.650;10.090;2023-11-18T15:00:59;101866.78;;;6.28
78225;BMP280;67498;53.650;10.090;2023-11-18T18:44:07;101567.66;;;5.06
78225;BMP280;67498;53.650;10.090;2023-11-18T19:54:26;101345.50;;;5.24
78225;BMP280;67498;53.650;10.090;2023-11-18T20:52:04;101272.19;;;5.20
78225;BMP280;67498;53.650;10.090;2023-11-18T20:58:01;101233.94;;;5.10
78225;BMP280;67498;53.650;10.090;2023-11-18T21:01:33;101240.38;;;5.19
78225;BMP280;67498;53.650;10.090;2023-11-18T21:04:19;101236.38;;;5.22
78225;BMP280;67498;53.650;10.090;2023-11-18T21:10:38;101169.28;;;5.13
78225;BMP280;67498;53.650;10.090;2023-11-18T21:20:17;101156.16;;;5.02
78225;BMP280;67498;53.650;10.090;2023-11-18T21:22:59;101160.03;;;5.12
78225;BMP280;67498;53.650;10.090;2023-11-18T21:25:54;101150.28;;;5.06
78225;BMP280;67498;53.650;10.090;2023-11-18T21:35:36;101120.56;;;4.96
78225;BMP280;67498;53.650;10.090;2023-11-18T21:38:19;101101.41;;;5.00
78225;BMP280;67498;53.650;10.090;2023-11-18T21:47:36;101095.06;;;4.98
78225;BMP280;67498;53.650;10.090;2023-11-18T21:50:02;101089.44;;;4.92
78225;BMP280;67498;53.650;10.090;2023-11-18T21:52:31;101092.44;;;4.94
78225;BMP280;67498;53.650;10.090;2023-11-18T21:55:06;101085.41;;;4.95
78225;BMP280;67498;53.650;10.090;2023-11-18T21:57:43;101064.56;;;4.88
78225;BMP280;67498;53.650;10.090;2023-11-18T22:00:28;101057.31;;;4.93
78225;BMP280;67498;53.650;10.090;2023-11-18T22:02:56;101049.56;;;4.93
78225;BMP280;67498;53.650;10.090;2023-11-18T22:05:46;101042.44;;;4.90
78225;BMP280;67498;53.650;10.090;2023-11-18T22:08:20;101044.41;;;4.97
78225;BMP280;67498;53.650;10.090;2023-11-18T22:10:59;101025.38;;;4.86
78225;BMP280;67498;53.650;10.090;2023-11-18T22:13:24;101028.78;;;4.90
78225;BMP280;67498;53.650;10.090;2023-11-18T22:15:57;101034.13;;;5.00
78225;BMP280;67498;53.650;10.090;2023-11-18T22:18:23;101020.75;;;4.95
78225;BMP280;67498;53.650;10.090;2023-11-18T22:20:49;101014.88;;;4.98
78225;BMP280;67498;53.650;10.090;2023-11-18T22:23:18;101010.16;;;5.03
78225;BMP280;67498;53.650;10.090;2023-11-18T22:25:43;101002.72;;;5.02
78225;BMP280;67498;53.650;10.090;2023-11-18T22:28:13;101002.69;;;4.98
78225;BMP280;67498;53.650;10.090;2023-11-18T22:30:38;100993.81;;;4.99
78225;BMP280;67498;53.650;10.090;2023-11-18T22:33:04;100997.22;;;5.03
78225;BMP280;67498;53.650;10.090;2023-11-18T22:35:36;100986.06;;;4.99
78225;BMP280;67498;53.650;10.090;2023-11-18T22:42:04;100982.81;;;5.02
78225;BMP280;67498;53.650;10.090;2023-11-18T22:45:02;100971.34;;;5.03
78225;BMP280;67498;53.650;10.090;2023-11-18T22:47:56;100965.84;;;5.05
78225;BMP280;67498;53.650;10.090;2023-11-18T22:50:48;100941.66;;;4.94
78225;BMP280;67498;53.650;10.090;2023-11-18T22:53:46;100949.16;;;5.02
78225;BMP280;67498;53.650;10.090;2023-11-18T23:09:51;100909.19;;;5.00
78225;BMP280;67498;53.650;10.090;2023-11-18T23:12:16;100901.50;;;5.03
78225;BMP280;67498;53.650;10.090;2023-11-18T23:14:42;100891.88;;;5.04
78225;BMP280;67498;53.650;10.090;2023-11-18T23:17:07;100869.72;;;5.03
78225;BMP280;67498;53.650;10.090;2023-11-18T23:19:34;100879.66;;;5.01
78225;BMP280;67498;53.650;10.090;2023-11-18T23:21:59;100876.84;;;5.10
78225;BMP280;67498;53.650;10.090;2023-11-18T23:24:32;100869.75;;;5.07
78225;BMP280;67498;53.650;10.090;2023-11-18T23:26:58;100878.66;;;5.09
78225;BMP280;67498;53.650;10.090;2023-11-18T23:29:23;100872.63;;;5.01
78225;BMP280;67498;53.650;10.090;2023-11-18T23:31:48;100865.72;;;5.09
78225;BMP280;67498;53.650;10.090;2023-11-18T23:34:14;100843.22;;;5.10
78225;BMP280;67498;53.650;10.090;2023-11-18T23:36:39;100836.28;;;5.17
78225;BMP280;67498;53.650;10.090;2023-11-18T23:39:05;100821.06;;;5.12
78225;BMP280;67498;53.650;10.090;2023-11-18T23:41:31;100834.75;;;5.16
78225;BMP280;67498;53.650;10.090;2023-11-18T23:43:56;100825.22;;;5.20
78225;BMP280;67498;53.650;10.090;2023-11-18T23:46:23;100820.75;;;5.17
78225;BMP280;67498;53.650;10.090;2023-11-18T23:48:53;100809.66;;;5.17
78225;BMP280;67498;53.650;10.090;2023-11-18T23:51:19;100805.63;;;5.19
78225;BMP280;67498;53.650;10.090;2023-11-18T23:53:44;100804.19;;;5.22
78225;BMP280;67498;53.650;10.090;2023-11-18T23:56:10;100797.50;;;5.21
78225;BMP280;67498;53.650;10.090;2023-11-18T23:58:35;100791.28;;;5.25
